Time,TemperatureF,DewpointF,PressureIn,WindDirection,WindDirectionDegrees,WindSpeedMPH,WindSpeedGustMPH,Humidity,HourlyPrecipIn,Conditions,Clouds,dailyrainin,SoftwareType,DateUTC
2013-06-19 00:02:00,54.0,49.0,29.14,North,-999,-999.0,-999.0,83,0.00,,,0.00,,2013-06-19 04:02:00,
2013-06-19 00:12:00,54.0,49.0,29.14,North,-999,-999.0,-999.0,83,0.00,,,0.00,,2013-06-19 04:12:00,
2013-06-19 00:22:00,54.0,49.0,29.14,North,-999,-999.0,-999.0,83,0.00,,,0.00,,2013-06-19 04:22:00,
2013-06-19 00:32:00,54.0,49.0,29.14,North,-999,-999.0,-999.0,83,0.00,,,0.00,,2013-06-19 04:32:00,
2013-06-19 00:43:00,54.0,49.0,29.14,North,-999,-999.0,-999.0,83,0.00,,,0.00,,2013-06-19 04:43:00,
2013-06-19 00:53:00,54.0,49.0,29.14,North,-999,-999.0,-999.0,83,0.00,,,0.00,,2013-06-19 04:53:00,
2013-06-19 01:01:00,54.0,49.0,29.14,North,-999,-999.0,-999.0,83,0.00,,,0.00,,2013-06-19 05:01:00,
2013-06-19 01:11:00,54.0,49.0,29.14,North,-999,-999.0,-999.0,83,0.00,,,0.00,,2013-06-19 05:11:00,
2013-06-19 01:23:00,53.0,48.0,29.14,North,-999,-999.0,-999.0,83,0.00,,,0.00,,2013-06-19 05:23:00,
2013-06-19 01:32:00,53.0,48.0,29.14,North,-999,-999.0,-999.0,83,0.00,,,0.00,,2013-06-19 05:32:00,
2013-06-19 01:43:00,53.0,48.0,29.14,North,-999,-999.0,-999.0,83,0.00,,,0.00,,2013-06-19 05:43:00,
2013-06-19 01:52:00,52.0,47.0,29.14,North,-999,-999.0,-999.0,83,0.00,,,0.00,,2013-06-19 05:52:00,
2013-06-19 02:02:00,52.0,47.0,29.14,North,-999,-999.0,-999.0,83,0.00,,,0.00,,2013-06-19 06:02:00,
2013-06-19 02:11:00,52.0,47.0,29.14,North,-999,-999.0,-999.0,83,0.00,,,0.00,,2013-06-19 06:11:00,
2013-06-19 02:22:00,52.0,47.0,29.13,North,-999,-999.0,-999.0,83,0.00,,,0.00,,2013-06-19 06:22:00,
2013-06-19 02:34:00,51.0,46.0,29.14,North,-999,-999.0,-999.0,83,0.00,,,0.00,,2013-06-19 06:34:00,
2013-06-19 02:42:00,51.0,46.0,29.14,North,-999,-999.0,-999.0,83,0.00,,,0.00,,2013-06-19 06:42:00,
2013-06-19 02:52:00,51.0,46.0,29.14,North,-999,-999.0,-999.0,83,0.00,,,0.00,,2013-06-19 06:52:00,
2013-06-19 03:01:00,51.0,46.0,29.14,North,-999,-999.0,-999.0,84,0.00,,,0.00,,2013-06-19 07:01:00,
2013-06-19 03:12:00,50.0,45.0,29.14,North,-999,-999.0,-999.0,83,0.00,,,0.00,,2013-06-19 07:12:00,
2013-06-19 03:22:00,50.0,45.0,29.14,North,-999,-999.0,-999.0,83,0.00,,,0.00,,2013-06-19 07:22:00,
2013-06-19 03:33:00,50.0,45.0,29.14,North,-999,-999.0,-999.0,83,0.00,,,0.00,,2013-06-19 07:33:00,
2013-06-19 03:43:00,50.0,45.0,29.14,North,-999,-999.0,-999.0,84,0.00,,,0.00,,2013-06-19 07:43:00,
2013-06-19 03:53:00,50.0,45.0,29.13,North,-999,-999.0,-999.0,84,0.00,,,0.00,,2013-06-19 07:53:00,
2013-06-19 04:02:00,49.0,44.0,29.14,North,-999,-999.0,-999.0,84,0.00,,,0.00,,2013-06-19 08:02:00,
2013-06-19 04:11:00,49.0,44.0,29.14,North,-999,-999.0,-999.0,84,0.00,,,0.00,,2013-06-19 08:11:00,
2013-06-19 04:22:00,49.0,44.0,29.15,North,-999,-999.0,-999.0,84,0.00,,,0.00,,2013-06-19 08:22:00,
2013-06-19 04:34:00,49.0,44.0,29.15,North,-999,-999.0,-999.0,84,0.00,,,0.00,,2013-06-19 08:34:00,
2013-06-19 04:43:00,49.0,44.0,29.15,North,-999,-999.0,-999.0,84,0.00,,,0.00,,2013-06-19 08:43:00,
2013-06-19 04:53:00,49.0,44.0,29.15,North,-999,-999.0,-999.0,84,0.00,,,0.00,,2013-06-19 08:53:00,
2013-06-19 05:02:00,50.0,45.0,29.15,North,-999,-999.0,-999.0,84,0.00,,,0.00,,2013-06-19 09:02:00,
2013-06-19 05:12:00,50.0,45.0,29.15,North,-999,-999.0,-999.0,84,0.00,,,0.00,,2013-06-19 09:12:00,
2013-06-19 05:22:00,50.0,45.0,29.15,North,-999,-999.0,-999.0,84,0.00,,,0.00,,2013-06-19 09:22:00,
2013-06-19 05:34:00,49.0,44.0,29.15,North,-999,-999.0,-999.0,84,0.00,,,0.00,,2013-06-19 09:34:00,
2013-06-19 05:44:00,49.0,44.0,29.16,North,-999,-999.0,-999.0,84,0.00,,,0.00,,2013-06-19 09:44:00,
2013-06-19 05:53:00,49.0,44.0,29.16,North,-999,-999.0,-999.0,84,0.00,,,0.00,,2013-06-19 09:53:00,
2013-06-19 06:02:00,49.0,44.0,29.16,North,-999,-999.0,-999.0,84,0.00,,,0.00,,2013-06-19 10:02:00,
2013-06-19 06:12:00,49.0,44.0,29.17,North,-999,-999.0,-999.0,84,0.00,,,0.00,,2013-06-19 10:12:00,
2013-06-19 06:22:00,49.0,45.0,29.17,North,-999,-999.0,-999.0,85,0.00,,,0.00,,2013-06-19 10:22:00,
2013-06-19 06:33:00,49.0,45.0,29.17,North,-999,-999.0,-999.0,85,0.00,,,0.00,,2013-06-19 10:33:00,
2013-06-19 06:42:00,50.0,46.0,29.17,North,-999,-999.0,-999.0,85,0.00,,,0.00,,2013-06-19 10:42:00,
2013-06-19 06:53:00,50.0,46.0,29.17,North,-999,-999.0,-999.0,85,0.00,,,0.00,,2013-06-19 10:53:00,
2013-06-19 07:02:00,50.0,46.0,29.16,North,-999,-999.0,-999.0,85,0.00,,,0.00,,2013-06-19 11:02:00,
2013-06-19 07:12:00,50.0,46.0,29.17,North,-999,-999.0,-999.0,85,0.00,,,0.00,,2013-06-19 11:12:00,
2013-06-19 07:22:00,50.0,46.0,29.17,North,-999,-999.0,-999.0,85,0.00,,,0.00,,2013-06-19 11:22:00,
2013-06-19 07:33:00,52.0,48.0,29.17,North,-999,-999.0,-999.0,85,0.00,,,0.00,,2013-06-19 11:33:00,
2013-06-19 07:43:00,53.0,49.0,29.17,North,-999,-999.0,-999.0,85,0.00,,,0.00,,2013-06-19 11:43:00,
2013-06-19 07:54:00,53.0,49.0,29.17,North,-999,-999.0,-999.0,85,0.00,,,0.00,,2013-06-19 11:54:00,
2013-06-19 08:02:00,53.0,49.0,29.17,North,-999,-999.0,-999.0,85,0.00,,,0.00,,2013-06-19 12:02:00,
2013-06-19 08:12:00,53.0,49.0,29.17,North,-999,-999.0,-999.0,85,0.00,,,0.00,,2013-06-19 12:12:00,
2013-06-19 08:22:00,57.0,51.0,29.19,North,-999,-999.0,-999.0,81,0.00,,,0.00,,2013-06-19 12:22:00,
2013-06-19 08:34:00,58.0,52.0,29.20,North,-999,-999.0,-999.0,80,0.00,,,0.00,,2013-06-19 12:34:00,
2013-06-19 08:44:00,59.0,52.0,29.19,North,-999,-999.0,-999.0,77,0.00,,,0.00,,2013-06-19 12:44:00,
2013-06-19 08:53:00,59.0,51.0,29.19,North,-999,-999.0,-999.0,76,0.00,,,0.00,,2013-06-19 12:53:00,
2013-06-19 09:02:00,61.0,53.0,29.20,North,-999,-999.0,-999.0,74,0.00,,,0.00,,2013-06-19 13:02:00,
2013-06-19 09:12:00,61.0,52.0,29.19,North,-999,-999.0,-999.0,72,0.00,,,0.00,,2013-06-19 13:12:00,
2013-06-19 09:22:00,62.0,52.0,29.20,North,-999,-999.0,-999.0,71,0.00,,,0.00,,2013-06-19 13:22:00,
2013-06-19 09:33:00,62.0,52.0,29.20,North,-999,-999.0,-999.0,69,0.00,,,0.00,,2013-06-19 13:33:00,
2013-06-19 09:42:00,63.0,52.0,29.20,North,-999,-999.0,-999.0,67,0.00,,,0.00,,2013-06-19 13:42:00,
2013-06-19 09:53:00,63.0,52.0,29.20,North,-999,-999.0,-999.0,67,0.00,,,0.00,,2013-06-19 13:53:00,
2013-06-19 10:02:00,63.0,52.0,29.20,North,-999,-999.0,-999.0,67,0.00,,,0.00,,2013-06-19 14:02:00,
2013-06-19 10:12:00,66.0,51.0,29.20,North,-999,-999.0,-999.0,59,0.00,,,0.00,,2013-06-19 14:12:00,
2013-06-19 10:22:00,66.0,51.0,29.21,North,-999,-999.0,-999.0,59,0.00,,,0.00,,2013-06-19 14:22:00,
2013-06-19 10:33:00,66.0,51.0,29.21,North,-999,-999.0,-999.0,59,0.00,,,0.00,,2013-06-19 14:33:00,
2013-06-19 10:44:00,66.0,51.0,29.21,North,-999,-999.0,-999.0,59,0.00,,,0.00,,2013-06-19 14:44:00,
2013-06-19 10:52:00,66.0,51.0,29.21,North,-999,-999.0,-999.0,59,0.00,,,0.00,,2013-06-19 14:52:00,
2013-06-19 11:02:00,69.0,53.0,29.22,North,-999,-999.0,-999.0,56,0.00,,,0.00,,2013-06-19 15:02:00,
2013-06-19 11:11:00,69.0,53.0,29.22,North,-999,-999.0,-999.0,56,0.00,,,0.00,,2013-06-19 15:11:00,
2013-06-19 11:22:00,69.0,53.0,29.22,North,-999,-999.0,-999.0,56,0.00,,,0.00,,2013-06-19 15:22:00,
2013-06-19 11:33:00,69.0,53.0,29.22,North,-999,-999.0,-999.0,56,0.00,,,0.00,,2013-06-19 15:33:00,
2013-06-19 11:43:00,69.0,53.0,29.22,North,-999,-999.0,-999.0,56,0.00,,,0.00,,2013-06-19 15:43:00,
2013-06-19 17:02:00,74.0,49.0,29.24,North,-999,-999.0,-999.0,41,0.00,,,0.00,,2013-06-19 21:02:00,
2013-06-19 17:12:00,74.0,49.0,29.24,North,-999,-999.0,-999.0,41,0.00,,,0.00,,2013-06-19 21:12:00,
2013-06-19 17:22:00,73.0,48.0,29.23,North,-999,-999.0,-999.0,41,0.00,,,0.00,,2013-06-19 21:22:00,
2013-06-19 17:33:00,73.0,47.0,29.23,North,-999,-999.0,-999.0,40,0.00,,,0.00,,2013-06-19 21:33:00,
2013-06-19 17:44:00,73.0,49.0,29.23,North,-999,-999.0,-999.0,42,0.00,,,0.00,,2013-06-19 21:44:00,
2013-06-19 17:52:00,74.0,49.0,29.23,North,-999,-999.0,-999.0,41,0.00,,,0.00,,2013-06-19 21:52:00,
2013-06-19 18:02:00,75.0,49.0,29.23,North,-999,-999.0,-999.0,40,0.00,,,0.00,,2013-06-19 22:02:00,
2013-06-19 18:11:00,75.0,49.0,29.23,North,-999,-999.0,-999.0,40,0.00,,,0.00,,2013-06-19 22:11:00,
2013-06-19 18:22:00,73.0,48.0,29.24,North,-999,-999.0,-999.0,41,0.00,,,0.00,,2013-06-19 22:22:00,
2013-06-19 18:34:00,72.0,47.0,29.24,North,-999,-999.0,-999.0,41,0.00,,,0.00,,2013-06-19 22:34:00,
2013-06-19 18:43:00,71.0,47.0,29.24,North,-999,-999.0,-999.0,42,0.00,,,0.00,,2013-06-19 22:43:00,
2013-06-19 18:53:00,72.0,48.0,29.24,North,-999,-999.0,-999.0,43,0.00,,,0.00,,2013-06-19 22:53:00,
2013-06-19 19:02:00,72.0,48.0,29.25,North,-999,-999.0,-999.0,43,0.00,,,0.00,,2013-06-19 23:02:00,
2013-06-19 19:12:00,72.0,48.0,29.25,North,-999,-999.0,-999.0,43,0.00,,,0.00,,2013-06-19 23:12:00,
2013-06-19 19:23:00,69.0,46.0,29.25,North,-999,-999.0,-999.0,44,0.00,,,0.00,,2013-06-19 23:23:00,
2013-06-19 19:34:00,69.0,46.0,29.25,North,-999,-999.0,-999.0,44,0.00,,,0.00,,2013-06-19 23:34:00,
2013-06-19 19:43:00,68.0,46.0,29.26,North,-999,-999.0,-999.0,45,0.00,,,0.00,,2013-06-19 23:43:00,
2013-06-19 19:52:00,68.0,46.0,29.26,North,-999,-999.0,-999.0,45,0.00,,,0.00,,2013-06-19 23:52:00,
2013-06-19 20:02:00,66.0,46.0,29.27,North,-999,-999.0,-999.0,48,0.00,,,0.00,,2013-06-20 00:02:00,
2013-06-19 20:12:00,66.0,46.0,29.27,North,-999,-999.0,-999.0,48,0.00,,,0.00,,2013-06-20 00:12:00,
2013-06-19 20:22:00,65.0,46.0,29.27,North,-999,-999.0,-999.0,50,0.00,,,0.00,,2013-06-20 00:22:00,
2013-06-19 20:34:00,65.0,46.0,29.27,North,-999,-999.0,-999.0,50,0.00,,,0.00,,2013-06-20 00:34:00,
2013-06-19 20:44:00,63.0,45.0,29.27,North,-999,-999.0,-999.0,52,0.00,,,0.00,,2013-06-20 00:44:00,
2013-06-19 20:52:00,63.0,45.0,29.27,North,-999,-999.0,-999.0,52,0.00,,,0.00,,2013-06-20 00:52:00,
2013-06-19 21:02:00,63.0,45.0,29.27,North,-999,-999.0,-999.0,52,0.00,,,0.00,,2013-06-20 01:02:00,
2013-06-19 21:12:00,63.0,45.0,29.27,North,-999,-999.0,-999.0,52,0.00,,,0.00,,2013-06-20 01:12:00,
2013-06-19 21:22:00,59.0,43.0,29.29,North,-999,-999.0,-999.0,56,0.00,,,0.00,,2013-06-20 01:22:00,
2013-06-19 21:33:00,59.0,43.0,29.29,North,-999,-999.0,-999.0,56,0.00,,,0.00,,2013-06-20 01:33:00,
2013-06-19 21:44:00,59.0,43.0,29.29,North,-999,-999.0,-999.0,56,0.00,,,0.00,,2013-06-20 01:44:00,
2013-06-19 21:52:00,59.0,43.0,29.29,North,-999,-999.0,-999.0,56,0.00,,,0.00,,2013-06-20 01:52:00,
2013-06-19 22:02:00,59.0,43.0,29.29,North,-999,-999.0,-999.0,56,0.00,,,0.00,,2013-06-20 02:02:00,
2013-06-19 22:12:00,59.0,43.0,29.29,North,-999,-999.0,-999.0,56,0.00,,,0.00,,2013-06-20 02:12:00,
2013-06-19 22:34:00,55.0,43.0,29.33,North,-999,-999.0,-999.0,63,0.00,,,0.00,,2013-06-20 02:34:00,
2013-06-19 22:43:00,55.0,43.0,29.33,North,-999,-999.0,-999.0,63,0.00,,,0.00,,2013-06-20 02:43:00,
2013-06-19 22:52:00,54.0,42.0,29.33,North,-999,-999.0,-999.0,64,0.00,,,0.00,,2013-06-20 02:52:00,
2013-06-19 23:02:00,54.0,42.0,29.33,North,-999,-999.0,-999.0,63,0.00,,,0.00,,2013-06-20 03:02:00,
2013-06-19 23:11:00,54.0,42.0,29.34,North,-999,-999.0,-999.0,64,0.00,,,0.00,,2013-06-20 03:11:00,
2013-06-19 23:22:00,53.0,42.0,29.34,North,-999,-999.0,-999.0,65,0.00,,,0.00,,2013-06-20 03:22:00,
2013-06-19 23:33:00,53.0,42.0,29.34,North,-999,-999.0,-999.0,65,0.00,,,0.00,,2013-06-20 03:33:00,
2013-06-19 23:43:00,53.0,42.0,29.35,North,-999,-999.0,-999.0,66,0.00,,,0.00,,2013-06-20 03:43:00,
2013-06-19 23:54:00,52.0,41.0,29.35,North,-999,-999.0,-999.0,67,0.00,,,0.00,,2013-06-20 03:54:00,